sensor_id;sensor_type;location;lat;lon;timestamp;P1;durP1;ratioP1;P2;durP2;ratioP2
48002;SDS011;33768;48.578;11.574;2023-10-31T00:00:11;3.10;;;2.80;;
48002;SDS011;33768;48.578;11.574;2023-10-31T00:03:16;2.60;;;2.40;;
48002;SDS011;33768;48.578;11.574;2023-10-31T00:06:21;2.67;;;2.10;;
48002;SDS011;33768;48.578;11.574;2023-10-31T00:09:26;3.53;;;2.00;;
48002;SDS011;33768;48.578;11.574;2023-10-31T00:12:30;2.13;;;1.47;;
48002;SDS011;33768;48.578;11.574;2023-10-31T00:15:34;1.97;;;1.60;;
48002;SDS011;33768;48.578;11.574;2023-10-31T00:18:38;3.20;;;1.50;;
48002;SDS011;33768;48.578;11.574;2023-10-31T00:21:43;4.23;;;1.83;;
48002;SDS011;33768;48.578;11.574;2023-10-31T00:24:47;2.63;;;1.90;;
48002;SDS011;33768;48.578;11.574;2023-10-31T00:27:51;3.10;;;1.83;;
48002;SDS011;33768;48.578;11.574;2023-10-31T00:30:55;2.77;;;2.13;;
48002;SDS011;33768;48.578;11.574;2023-10-31T00:33:59;3.87;;;2.07;;
48002;SDS011;33768;48.578;11.574;2023-10-31T00:37:05;2.60;;;2.03;;
48002;SDS011;33768;48.578;11.574;2023-10-31T00:40:09;2.83;;;2.30;;
48002;SDS011;33768;48.578;11.574;2023-10-31T00:43:14;2.50;;;1.90;;
48002;SDS011;33768;48.578;11.574;2023-10-31T00:46:19;5.00;;;2.10;;
48002;SDS011;33768;48.578;11.574;2023-10-31T00:49:23;1.80;;;1.70;;
48002;SDS011;33768;48.578;11.574;2023-10-31T00:52:27;2.17;;;1.80;;
48002;SDS011;33768;48.578;11.574;2023-10-31T00:55:31;1.60;;;1.50;;
48002;SDS011;33768;48.578;11.574;2023-10-31T00:58:35;1.90;;;1.50;;
48002;SDS011;33768;48.578;11.574;2023-10-31T01:01:39;1.70;;;1.60;;
48002;SDS011;33768;48.578;11.574;2023-10-31T01:04:43;2.17;;;1.63;;
48002;SDS011;33768;48.578;11.574;2023-10-31T01:07:48;2.10;;;1.80;;
48002;SDS011;33768;48.578;11.574;2023-10-31T01:10:52;2.53;;;2.13;;
48002;SDS011;33768;48.578;11.574;2023-10-31T01:13:56;3.80;;;2.20;;
48002;SDS011;33768;48.578;11.574;2023-10-31T01:17:00;4.00;;;2.20;;
48002;SDS011;33768;48.578;11.574;2023-10-31T01:20:05;4.20;;;2.47;;
48002;SDS011;33768;48.578;11.574;2023-10-31T01:23:10;4.07;;;2.30;;
48002;SDS011;33768;48.578;11.574;2023-10-31T01:26:14;2.50;;;2.10;;
48002;SDS011;33768;48.578;11.574;2023-10-31T01:29:18;2.53;;;2.30;;
48002;SDS011;33768;48.578;11.574;2023-10-31T01:32:22;3.07;;;2.10;;
48002;SDS011;33768;48.578;11.574;2023-10-31T01:35:26;2.40;;;2.20;;
48002;SDS011;33768;48.578;11.574;2023-10-31T01:38:31;2.63;;;2.30;;
48002;SDS011;33768;48.578;11.574;2023-10-31T01:41:35;3.10;;;2.30;;
48002;SDS011;33768;48.578;11.574;2023-10-31T01:44:40;2.63;;;2.30;;
48002;SDS011;33768;48.578;11.574;2023-10-31T01:47:45;2.47;;;1.93;;
48002;SDS011;33768;48.578;11.574;2023-10-31T01:50:52;2.73;;;2.10;;
48002;SDS011;33768;48.578;11.574;2023-10-31T01:53:57;2.47;;;1.80;;
48002;SDS011;33768;48.578;11.574;2023-10-31T01:57:02;2.37;;;2.00;;
48002;SDS011;33768;48.578;11.574;2023-10-31T02:00:09;2.33;;;2.10;;
48002;SDS011;33768;48.578;11.574;2023-10-31T02:03:17;2.53;;;2.07;;
48002;SDS011;33768;48.578;11.574;2023-10-31T02:06:21;2.03;;;1.80;;
48002;SDS011;33768;48.578;11.574;2023-10-31T02:09:26;3.40;;;1.67;;
48002;SDS011;33768;48.578;11.574;2023-10-31T02:12:33;1.60;;;1.50;;
48002;SDS011;33768;48.578;11.574;2023-10-31T02:15:39;1.30;;;1.20;;
48002;SDS011;33768;48.578;11.574;2023-10-31T02:18:44;1.13;;;1.03;;
48002;SDS011;33768;48.578;11.574;2023-10-31T02:21:48;3.53;;;1.00;;
48002;SDS011;33768;48.578;11.574;2023-10-31T02:24:52;2.70;;;1.17;;
48002;SDS011;33768;48.578;11.574;2023-10-31T02:27:56;1.30;;;1.00;;
48002;SDS011;33768;48.578;11.574;2023-10-31T02:31:00;0.90;;;0.90;;
48002;SDS011;33768;48.578;11.574;2023-10-31T02:34:23;1.20;;;0.90;;
48002;SDS011;33768;48.578;11.574;2023-10-31T02:37:27;2.43;;;1.10;;
48002;SDS011;33768;48.578;11.574;2023-10-31T02:40:31;1.27;;;0.90;;
48002;SDS011;33768;48.578;11.574;2023-10-31T02:43:36;5.47;;;1.10;;
48002;SDS011;33768;48.578;11.574;2023-10-31T02:46:41;1.20;;;1.00;;
48002;SDS011;33768;48.578;11.574;2023-10-31T02:49:46;1.20;;;1.00;;
48002;SDS011;33768;48.578;11.574;2023-10-31T02:52:50;2.43;;;1.20;;
48002;SDS011;33768;48.578;11.574;2023-10-31T02:55:55;1.10;;;1.00;;
48002;SDS011;33768;48.578;11.574;2023-10-31T02:58:59;1.30;;;1.00;;
48002;SDS011;33768;48.578;11.574;2023-10-31T03:02:03;1.20;;;1.10;;
48002;SDS011;33768;48.578;11.574;2023-10-31T03:05:07;1.10;;;1.00;;
48002;SDS011;33768;48.578;11.574;2023-10-31T03:08:12;1.03;;;0.90;;
48002;SDS011;33768;48.578;11.574;2023-10-31T03:11:20;1.87;;;0.90;;
48002;SDS011;33768;48.578;11.574;2023-10-31T03:14:28;0.83;;;0.80;;
48002;SDS011;33768;48.578;11.574;2023-10-31T03:17:32;0.87;;;0.83;;
48002;SDS011;33768;48.578;11.574;2023-10-31T03:20:36;1.23;;;1.00;;
48002;SDS011;33768;48.578;11.574;2023-10-31T03:23:46;1.87;;;0.97;;
48002;SDS011;33768;48.578;11.574;2023-10-31T03:26:52;0.90;;;0.90;;
48002;SDS011;33768;48.578;11.574;2023-10-31T03:29:58;1.57;;;0.80;;
48002;SDS011;33768;48.578;11.574;2023-10-31T03:33:02;0.97;;;0.87;;
48002;SDS011;33768;48.578;11.574;2023-10-31T03:36:07;0.80;;;0.70;;
48002;SDS011;33768;48.578;11.574;2023-10-31T03:39:12;0.80;;;0.70;;
48002;SDS011;33768;48.578;11.574;2023-10-31T03:42:16;0.70;;;0.70;;
48002;SDS011;33768;48.578;11.574;2023-10-31T03:45:20;0.93;;;0.80;;
48002;SDS011;33768;48.578;11.574;2023-10-31T03:48:24;1.10;;;0.97;;
48002;SDS011;33768;48.578;11.574;2023-10-31T03:51:28;2.00;;;1.00;;
48002;SDS011;33768;48.578;11.574;2023-10-31T03:54:32;1.10;;;0.77;;
48002;SDS011;33768;48.578;11.574;2023-10-31T03:57:38;2.03;;;1.00;;
48002;SDS011;33768;48.578;11.574;2023-10-31T04:00:42;2.70;;;0.80;;
48002;SDS011;33768;48.578;11.574;2023-10-31T04:03:46;0.60;;;0.60;;
48002;SDS011;33768;48.578;11.574;2023-10-31T04:06:50;0.70;;;0.70;;
48002;SDS011;33768;48.578;11.574;2023-10-31T04:09:54;0.87;;;0.50;;
48002;SDS011;33768;48.578;11.574;2023-10-31T04:13:00;2.53;;;0.70;;
48002;SDS011;33768;48.578;11.574;2023-10-31T04:16:04;0.80;;;0.70;;
48002;SDS011;33768;48.578;11.574;2023-10-31T04:19:08;1.47;;;0.93;;
48002;SDS011;33768;48.578;11.574;2023-10-31T04:22:12;2.20;;;0.80;;
48002;SDS011;33768;48.578;11.574;2023-10-31T04:25:16;2.00;;;0.80;;
48002;SDS011;33768;48.578;11.574;2023-10-31T04:28:21;1.37;;;0.80;;
48002;SDS011;33768;48.578;11.574;2023-10-31T04:31:25;1.13;;;0.70;;
48002;SDS011;33768;48.578;11.574;2023-10-31T04:34:29;1.30;;;0.60;;
48002;SDS011;33768;48.578;11.574;2023-10-31T04:37:33;0.80;;;0.50;;
48002;SDS011;33768;48.578;11.574;2023-10-31T04:40:37;1.63;;;0.73;;
48002;SDS011;33768;48.578;11.574;2023-10-31T04:43:41;0.70;;;0.70;;
48002;SDS011;33768;48.578;11.574;2023-10-31T04:46:46;0.90;;;0.77;;
48002;SDS011;33768;48.578;11.574;2023-10-31T04:49:51;1.27;;;0.80;;
48002;SDS011;33768;48.578;11.574;2023-10-31T04:52:55;1.57;;;0.90;;
48002;SDS011;33768;48.578;11.574;2023-10-31T04:55:59;1.00;;;0.90;;
48002;SDS011;33768;48.578;11.574;2023-10-31T04:59:03;1.70;;;1.00;;
48002;SDS011;33768;48.578;11.574;2023-10-31T05:02:07;1.20;;;1.00;;
48002;SDS011;33768;48.578;11.574;2023-10-31T05:05:11;0.70;;;0.67;;
48002;SDS011;33768;48.578;11.574;2023-10-31T05:08:15;3.20;;;0.60;;
48002;SDS011;33768;48.578;11.574;2023-10-31T05:11:20;1.00;;;0.80;;
48002;SDS011;33768;48.578;11.574;2023-10-31T05:14:24;1.13;;;0.90;;
48002;SDS011;33768;48.578;11.574;2023-10-31T05:17:28;0.60;;;0.60;;
48002;SDS011;33768;48.578;11.574;2023-10-31T05:20:34;2.67;;;0.60;;
48002;SDS011;33768;48.578;11.574;2023-10-31T05:23:38;0.87;;;0.53;;
48002;SDS011;33768;48.578;11.574;2023-10-31T05:26:42;3.73;;;0.97;;
48002;SDS011;33768;48.578;11.574;2023-10-31T05:29:49;0.87;;;0.67;;
48002;SDS011;33768;48.578;11.574;2023-10-31T05:32:53;0.83;;;0.57;;
48002;SDS011;33768;48.578;11.574;2023-10-31T05:35:57;2.33;;;0.60;;
48002;SDS011;33768;48.578;11.574;2023-10-31T05:39:02;0.80;;;0.70;;
48002;SDS011;33768;48.578;11.574;2023-10-31T05:42:06;0.77;;;0.57;;
48002;SDS011;33768;48.578;11.574;2023-10-31T05:45:10;1.37;;;0.70;;
48002;SDS011;33768;48.578;11.574;2023-10-31T05:48:14;3.23;;;0.97;;
48002;SDS011;33768;48.578;11.574;2023-10-31T05:51:18;0.97;;;0.60;;
48002;SDS011;33768;48.578;11.574;2023-10-31T05:54:23;0.70;;;0.60;;
48002;SDS011;33768;48.578;11.574;2023-10-31T05:57:28;1.47;;;0.63;;
48002;SDS011;33768;48.578;11.574;2023-10-31T06:00:32;0.63;;;0.63;;
48002;SDS011;33768;48.578;11.574;2023-10-31T06:03:37;2.00;;;0.83;;
48002;SDS011;33768;48.578;11.574;2023-10-31T06:06:41;2.10;;;0.70;;
48002;SDS011;33768;48.578;11.574;2023-10-31T06:09:45;2.50;;;0.80;;
48002;SDS011;33768;48.578;11.574;2023-10-31T06:12:49;3.53;;;0.97;;
48002;SDS011;33768;48.578;11.574;2023-10-31T06:15:54;2.07;;;1.00;;
48002;SDS011;33768;48.578;11.574;2023-10-31T06:18:58;1.03;;;0.80;;
48002;SDS011;33768;48.578;11.574;2023-10-31T06:22:02;1.13;;;1.00;;
48002;SDS011;33768;48.578;11.574;2023-10-31T06:25:07;4.00;;;1.27;;
48002;SDS011;33768;48.578;11.574;2023-10-31T06:28:11;1.40;;;0.90;;
48002;SDS011;33768;48.578;11.574;2023-10-31T06:31:15;2.50;;;1.00;;
48002;SDS011;33768;48.578;11.574;2023-10-31T06:34:20;1.10;;;1.00;;
48002;SDS011;33768;48.578;11.574;2023-10-31T06:37:24;1.30;;;0.90;;
48002;SDS011;33768;48.578;11.574;2023-10-31T06:40:28;2.20;;;0.80;;
48002;SDS011;33768;48.578;11.574;2023-10-31T06:43:32;2.17;;;1.00;;
48002;SDS011;33768;48.578;11.574;2023-10-31T06:46:36;3.33;;;2.23;;
48002;SDS011;33768;48.578;11.574;2023-10-31T06:49:40;6.77;;;4.47;;
48002;SDS011;33768;48.578;11.574;2023-10-31T06:52:44;3.20;;;2.27;;
48002;SDS011;33768;48.578;11.574;2023-10-31T06:55:48;3.70;;;2.80;;
48002;SDS011;33768;48.578;11.574;2023-10-31T06:58:53;6.93;;;5.20;;
48002;SDS011;33768;48.578;11.574;2023-10-31T07:01:57;3.60;;;3.10;;
48002;SDS011;33768;48.578;11.574;2023-10-31T07:05:01;2.73;;;2.37;;
48002;SDS011;33768;48.578;11.574;2023-10-31T07:08:07;2.93;;;1.80;;
48002;SDS011;33768;48.578;11.574;2023-10-31T07:11:11;2.13;;;1.73;;
48002;SDS011;33768;48.578;11.574;2023-10-31T07:14:15;1.33;;;1.23;;
48002;SDS011;33768;48.578;11.574;2023-10-31T07:17:19;1.27;;;0.80;;
48002;SDS011;33768;48.578;11.574;2023-10-31T07:20:23;1.10;;;0.93;;
48002;SDS011;33768;48.578;11.574;2023-10-31T07:23:27;1.20;;;1.10;;
48002;SDS011;33768;48.578;11.574;2023-10-31T07:26:31;1.40;;;1.30;;
48002;SDS011;33768;48.578;11.574;2023-10-31T07:29:38;3.90;;;0.90;;
48002;SDS011;33768;48.578;11.574;2023-10-31T07:32:43;1.57;;;1.47;;
48002;SDS011;33768;48.578;11.574;2023-10-31T07:35:47;1.63;;;1.20;;
48002;SDS011;33768;48.578;11.574;2023-10-31T07:38:51;3.53;;;0.63;;
48002;SDS011;33768;48.578;11.574;2023-10-31T07:41:55;9.20;;;6.70;;
48002;SDS011;33768;48.578;11.574;2023-10-31T07:44:59;3.00;;;1.67;;
48002;SDS011;33768;48.578;11.574;2023-10-31T07:48:04;1.60;;;1.50;;
48002;SDS011;33768;48.578;11.574;2023-10-31T07:51:08;1.50;;;0.70;;
48002;SDS011;33768;48.578;11.574;2023-10-31T07:54:12;0.93;;;0.80;;
48002;SDS011;33768;48.578;11.574;2023-10-31T07:57:16;6.30;;;3.93;;
48002;SDS011;33768;48.578;11.574;2023-10-31T08:00:20;4.23;;;3.23;;
48002;SDS011;33768;48.578;11.574;2023-10-31T08:03:25;5.27;;;1.70;;
48002;SDS011;33768;48.578;11.574;2023-10-31T08:06:31;2.47;;;1.83;;
48002;SDS011;33768;48.578;11.574;2023-10-31T08:09:35;3.20;;;1.43;;
48002;SDS011;33768;48.578;11.574;2023-10-31T08:12:39;2.13;;;1.70;;
48002;SDS011;33768;48.578;11.574;2023-10-31T08:15:44;0.90;;;0.60;;
48002;SDS011;33768;48.578;11.574;2023-10-31T08:18:48;1.63;;;1.00;;
48002;SDS011;33768;48.578;11.574;2023-10-31T08:21:53;0.97;;;0.80;;
48002;SDS011;33768;48.578;11.574;2023-10-31T08:24:57;4.37;;;0.77;;
48002;SDS011;33768;48.578;11.574;2023-10-31T08:28:00;3.60;;;2.20;;
48002;SDS011;33768;48.578;11.574;2023-10-31T08:31:06;1.30;;;0.60;;
48002;SDS011;33768;48.578;11.574;2023-10-31T08:34:11;1.43;;;0.80;;
48002;SDS011;33768;48.578;11.574;2023-10-31T08:37:15;2.63;;;0.60;;
48002;SDS011;33768;48.578;11.574;2023-10-31T08:40:19;1.70;;;0.70;;
48002;SDS011;33768;48.578;11.574;2023-10-31T08:43:23;1.10;;;0.90;;
48002;SDS011;33768;48.578;11.574;2023-10-31T08:46:27;1.30;;;1.10;;
48002;SDS011;33768;48.578;11.574;2023-10-31T08:49:32;3.70;;;1.00;;
48002;SDS011;33768;48.578;11.574;2023-10-31T08:52:36;2.60;;;1.20;;
48002;SDS011;33768;48.578;11.574;2023-10-31T08:55:42;9.50;;;6.40;;
48002;SDS011;33768;48.578;11.574;2023-10-31T08:58:47;2.63;;;1.50;;
48002;SDS011;33768;48.578;11.574;2023-10-31T09:01:52;1.50;;;0.83;;
48002;SDS011;33768;48.578;11.574;2023-10-31T09:04:56;0.90;;;0.70;;
48002;SDS011;33768;48.578;11.574;2023-10-31T09:08:00;3.00;;;0.70;;
48002;SDS011;33768;48.578;11.574;2023-10-31T09:11:05;1.50;;;0.87;;
48002;SDS011;33768;48.578;11.574;2023-10-31T09:14:09;2.37;;;1.10;;
48002;SDS011;33768;48.578;11.574;2023-10-31T09:17:13;5.00;;;3.80;;
48002;SDS011;33768;48.578;11.574;2023-10-31T09:20:17;3.07;;;1.00;;
48002;SDS011;33768;48.578;11.574;2023-10-31T09:23:22;3.13;;;0.80;;
48002;SDS011;33768;48.578;11.574;2023-10-31T09:26:26;1.67;;;1.20;;
48002;SDS011;33768;48.578;11.574;2023-10-31T09:29:30;1.87;;;1.37;;
48002;SDS011;33768;48.578;11.574;2023-10-31T09:32:34;1.97;;;1.40;;
48002;SDS011;33768;48.578;11.574;2023-10-31T09:35:39;1.83;;;1.50;;
48002;SDS011;33768;48.578;11.574;2023-10-31T09:38:43;3.70;;;3.40;;
48002;SDS011;33768;48.578;11.574;2023-10-31T09:41:47;2.17;;;1.50;;
48002;SDS011;33768;48.578;11.574;2023-10-31T09:44:51;2.30;;;1.37;;
48002;SDS011;33768;48.578;11.574;2023-10-31T09:47:55;2.73;;;0.90;;
48002;SDS011;33768;48.578;11.574;2023-10-31T09:51:02;3.40;;;3.10;;
48002;SDS011;33768;48.578;11.574;2023-10-31T09:54:06;2.50;;;2.00;;
48002;SDS011;33768;48.578;11.574;2023-10-31T09:57:12;1.87;;;1.70;;
48002;SDS011;33768;48.578;11.574;2023-10-31T10:00:17;11.67;;;8.03;;
48002;SDS011;33768;48.578;11.574;2023-10-31T10:03:22;1.50;;;1.40;;
48002;SDS011;33768;48.578;11.574;2023-10-31T10:06:26;3.23;;;1.00;;
48002;SDS011;33768;48.578;11.574;2023-10-31T10:09:30;2.30;;;0.93;;
48002;SDS011;33768;48.578;11.574;2023-10-31T10:12:35;3.20;;;0.90;;
48002;SDS011;33768;48.578;11.574;2023-10-31T10:15:46;1.03;;;0.90;;
48002;SDS011;33768;48.578;11.574;2023-10-31T10:18:55;1.40;;;0.90;;
48002;SDS011;33768;48.578;11.574;2023-10-31T10:21:59;1.30;;;0.90;;
48002;SDS011;33768;48.578;11.574;2023-10-31T10:25:05;1.57;;;1.10;;
48002;SDS011;33768;48.578;11.574;2023-10-31T10:28:12;0.93;;;0.87;;
48002;SDS011;33768;48.578;11.574;2023-10-31T10:31:18;6.10;;;3.20;;
48002;SDS011;33768;48.578;11.574;2023-10-31T10:34:22;1.50;;;0.90;;
48002;SDS011;33768;48.578;11.574;2023-10-31T10:37:26;3.80;;;0.70;;
48002;SDS011;33768;48.578;11.574;2023-10-31T10:40:31;3.20;;;1.00;;
48002;SDS011;33768;48.578;11.574;2023-10-31T10:43:37;2.83;;;1.00;;
48002;SDS011;33768;48.578;11.574;2023-10-31T10:46:41;8.13;;;1.10;;
48002;SDS011;33768;48.578;11.574;2023-10-31T10:49:52;4.70;;;0.87;;
48002;SDS011;33768;48.578;11.574;2023-10-31T10:53:05;2.97;;;0.80;;
48002;SDS011;33768;48.578;11.574;2023-10-31T10:56:16;1.60;;;0.70;;
48002;SDS011;33768;48.578;11.574;2023-10-31T10:59:39;1.47;;;0.73;;
48002;SDS011;33768;48.578;11.574;2023-10-31T11:02:46;1.67;;;0.67;;
48002;SDS011;33768;48.578;11.574;2023-10-31T11:05:50;1.93;;;0.70;;
48002;SDS011;33768;48.578;11.574;2023-10-31T11:08:55;0.90;;;0.67;;
48002;SDS011;33768;48.578;11.574;2023-10-31T11:11:59;1.73;;;0.87;;
48002;SDS011;33768;48.578;11.574;2023-10-31T11:15:05;5.37;;;0.93;;
48002;SDS011;33768;48.578;11.574;2023-10-31T11:18:10;1.30;;;1.00;;
48002;SDS011;33768;48.578;11.574;2023-10-31T11:21:16;3.77;;;1.13;;
48002;SDS011;33768;48.578;11.574;2023-10-31T11:24:20;20.17;;;10.33;;
48002;SDS011;33768;48.578;11.574;2023-10-31T11:27:27;6.73;;;4.43;;
48002;SDS011;33768;48.578;11.574;2023-10-31T11:30:34;3.33;;;2.50;;
48002;SDS011;33768;48.578;11.574;2023-10-31T11:33:38;3.50;;;1.53;;
48002;SDS011;33768;48.578;11.574;2023-10-31T11:36:44;3.30;;;2.07;;
48002;SDS011;33768;48.578;11.574;2023-10-31T11:43:17;8.37;;;4.27;;
48002;SDS011;33768;48.578;11.574;2023-10-31T11:46:24;7.30;;;3.30;;
48002;SDS011;33768;48.578;11.574;2023-10-31T11:49:47;7.87;;;1.80;;
48002;SDS011;33768;48.578;11.574;2023-10-31T11:53:25;7.20;;;2.00;;
48002;SDS011;33768;48.578;11.574;2023-10-31T11:56:24;14.87;;;7.77;;
48002;SDS011;33768;48.578;11.574;2023-10-31T11:59:35;29.80;;;14.07;;
48002;SDS011;33768;48.578;11.574;2023-10-31T12:02:42;19.13;;;9.63;;
48002;SDS011;33768;48.578;11.574;2023-10-31T12:06:01;25.37;;;14.23;;
48002;SDS011;33768;48.578;11.574;2023-10-31T12:09:05;29.00;;;17.50;;
48002;SDS011;33768;48.578;11.574;2023-10-31T12:12:09;15.90;;;10.97;;
48002;SDS011;33768;48.578;11.574;2023-10-31T12:15:13;8.67;;;4.70;;
48002;SDS011;33768;48.578;11.574;2023-10-31T12:18:17;4.83;;;1.50;;
48002;SDS011;33768;48.578;11.574;2023-10-31T12:24:50;5.27;;;2.10;;
48002;SDS011;33768;48.578;11.574;2023-10-31T12:27:54;1.80;;;1.50;;
48002;SDS011;33768;48.578;11.574;2023-10-31T12:30:58;3.43;;;1.10;;
48002;SDS011;33768;48.578;11.574;2023-10-31T12:34:06;3.47;;;2.00;;
48002;SDS011;33768;48.578;11.574;2023-10-31T12:37:10;3.97;;;1.53;;
48002;SDS011;33768;48.578;11.574;2023-10-31T12:40:15;3.97;;;1.93;;
48002;SDS011;33768;48.578;11.574;2023-10-31T12:43:21;3.40;;;1.80;;
48002;SDS011;33768;48.578;11.574;2023-10-31T12:46:29;4.27;;;1.90;;
48002;SDS011;33768;48.578;11.574;2023-10-31T12:49:34;1.43;;;1.30;;
48002;SDS011;33768;48.578;11.574;2023-10-31T12:52:51;3.77;;;0.90;;
48002;SDS011;33768;48.578;11.574;2023-10-31T12:55:56;2.27;;;1.03;;
48002;SDS011;33768;48.578;11.574;2023-10-31T12:59:00;2.93;;;0.93;;
48002;SDS011;33768;48.578;11.574;2023-10-31T13:02:04;2.93;;;1.17;;
48002;SDS011;33768;48.578;11.574;2023-10-31T13:05:10;2.97;;;0.93;;
48002;SDS011;33768;48.578;11.574;2023-10-31T13:08:16;7.27;;;1.00;;
48002;SDS011;33768;48.578;11.574;2023-10-31T13:11:20;3.67;;;0.83;;
48002;SDS011;33768;48.578;11.574;2023-10-31T13:14:29;1.77;;;0.80;;
48002;SDS011;33768;48.578;11.574;2023-10-31T13:17:33;3.40;;;1.00;;
48002;SDS011;33768;48.578;11.574;2023-10-31T13:20:40;2.17;;;0.97;;
48002;SDS011;33768;48.578;11.574;2023-10-31T13:23:44;4.13;;;0.90;;
48002;SDS011;33768;48.578;11.574;2023-10-31T13:26:49;4.20;;;1.63;;
48002;SDS011;33768;48.578;11.574;2023-10-31T13:29:55;12.83;;;8.57;;
48002;SDS011;33768;48.578;11.574;2023-10-31T13:32:59;11.37;;;4.87;;
48002;SDS011;33768;48.578;11.574;2023-10-31T13:36:03;17.73;;;9.80;;
48002;SDS011;33768;48.578;11.574;2023-10-31T13:39:08;17.77;;;10.97;;
48002;SDS011;33768;48.578;11.574;2023-10-31T13:42:12;3.83;;;0.90;;
48002;SDS011;33768;48.578;11.574;2023-10-31T13:45:18;6.40;;;1.83;;
48002;SDS011;33768;48.578;11.574;2023-10-31T13:48:22;5.20;;;1.43;;
48002;SDS011;33768;48.578;11.574;2023-10-31T13:51:26;2.70;;;1.40;;
48002;SDS011;33768;48.578;11.574;2023-10-31T13:54:30;5.17;;;1.10;;
48002;SDS011;33768;48.578;11.574;2023-10-31T13:57:35;1.83;;;0.90;;
48002;SDS011;33768;48.578;11.574;2023-10-31T14:00:39;16.60;;;7.70;;
48002;SDS011;33768;48.578;11.574;2023-10-31T14:03:43;13.83;;;7.83;;
48002;SDS011;33768;48.578;11.574;2023-10-31T14:06:48;48.97;;;24.47;;
48002;SDS011;33768;48.578;11.574;2023-10-31T14:09:52;30.73;;;14.03;;
48002;SDS011;33768;48.578;11.574;2023-10-31T14:12:56;56.13;;;25.77;;
48002;SDS011;33768;48.578;11.574;2023-10-31T14:16:01;6.87;;;4.20;;
48002;SDS011;33768;48.578;11.574;2023-10-31T14:19:05;4.63;;;1.77;;
48002;SDS011;33768;48.578;11.574;2023-10-31T14:22:13;3.27;;;1.23;;
48002;SDS011;33768;48.578;11.574;2023-10-31T14:25:18;3.63;;;1.63;;
48002;SDS011;33768;48.578;11.574;2023-10-31T14:28:22;2.93;;;1.30;;
48002;SDS011;33768;48.578;11.574;2023-10-31T14:31:26;17.30;;;9.60;;
48002;SDS011;33768;48.578;11.574;2023-10-31T14:34:30;2.80;;;1.70;;
48002;SDS011;33768;48.578;11.574;2023-10-31T14:37:34;2.73;;;1.20;;
48002;SDS011;33768;48.578;11.574;2023-10-31T14:40:38;2.03;;;0.90;;
48002;SDS011;33768;48.578;11.574;2023-10-31T14:43:43;1.87;;;0.87;;
48002;SDS011;33768;48.578;11.574;2023-10-31T14:46:47;2.90;;;1.00;;
48002;SDS011;33768;48.578;11.574;2023-10-31T14:49:51;5.70;;;1.20;;
48002;SDS011;33768;48.578;11.574;2023-10-31T14:52:55;3.70;;;0.80;;
48002;SDS011;33768;48.578;11.574;2023-10-31T14:55:59;2.37;;;0.83;;
48002;SDS011;33768;48.578;11.574;2023-10-31T14:59:05;2.30;;;0.87;;
48002;SDS011;33768;48.578;11.574;2023-10-31T15:02:10;1.93;;;0.70;;
48002;SDS011;33768;48.578;11.574;2023-10-31T15:05:14;2.97;;;0.93;;
48002;SDS011;33768;48.578;11.574;2023-10-31T15:08:18;3.23;;;0.80;;
48002;SDS011;33768;48.578;11.574;2023-10-31T15:11:23;2.13;;;1.00;;
48002;SDS011;33768;48.578;11.574;2023-10-31T15:14:27;2.43;;;0.80;;
48002;SDS011;33768;48.578;11.574;2023-10-31T15:17:31;2.00;;;0.70;;
48002;SDS011;33768;48.578;11.574;2023-10-31T15:20:35;2.10;;;0.70;;
48002;SDS011;33768;48.578;11.574;2023-10-31T15:23:40;3.70;;;0.90;;
48002;SDS011;33768;48.578;11.574;2023-10-31T15:26:44;5.50;;;0.80;;
48002;SDS011;33768;48.578;11.574;2023-10-31T15:29:48;3.83;;;1.20;;
48002;SDS011;33768;48.578;11.574;2023-10-31T15:32:52;3.43;;;1.30;;
48002;SDS011;33768;48.578;11.574;2023-10-31T15:36:16;2.43;;;2.03;;
48002;SDS011;33768;48.578;11.574;2023-10-31T15:39:21;2.50;;;2.20;;
48002;SDS011;33768;48.578;11.574;2023-10-31T15:42:26;3.67;;;1.33;;
48002;SDS011;33768;48.578;11.574;2023-10-31T15:45:31;3.00;;;0.90;;
48002;SDS011;33768;48.578;11.574;2023-10-31T15:48:43;4.30;;;2.00;;
48002;SDS011;33768;48.578;11.574;2023-10-31T15:51:48;1.37;;;1.23;;
48002;SDS011;33768;48.578;11.574;2023-10-31T15:54:51;4.70;;;1.67;;
48002;SDS011;33768;48.578;11.574;2023-10-31T15:57:56;1.40;;;1.00;;
48002;SDS011;33768;48.578;11.574;2023-10-31T16:01:01;1.73;;;0.83;;
48002;SDS011;33768;48.578;11.574;2023-10-31T16:04:05;0.97;;;0.87;;
48002;SDS011;33768;48.578;11.574;2023-10-31T16:07:09;2.30;;;1.07;;
48002;SDS011;33768;48.578;11.574;2023-10-31T16:10:14;0.83;;;0.70;;
48002;SDS011;33768;48.578;11.574;2023-10-31T16:13:18;3.30;;;0.90;;
48002;SDS011;33768;48.578;11.574;2023-10-31T16:16:22;2.50;;;0.80;;
48002;SDS011;33768;48.578;11.574;2023-10-31T16:19:26;2.20;;;0.70;;
48002;SDS011;33768;48.578;11.574;2023-10-31T16:22:30;1.27;;;1.03;;
48002;SDS011;33768;48.578;11.574;2023-10-31T16:25:35;4.30;;;2.37;;
48002;SDS011;33768;48.578;11.574;2023-10-31T16:28:39;3.23;;;1.83;;
48002;SDS011;33768;48.578;11.574;2023-10-31T16:31:43;1.50;;;0.90;;
48002;SDS011;33768;48.578;11.574;2023-10-31T16:34:47;4.43;;;1.23;;
48002;SDS011;33768;48.578;11.574;2023-10-31T16:37:55;1.00;;;0.90;;
48002;SDS011;33768;48.578;11.574;2023-10-31T16:41:02;1.93;;;1.03;;
48002;SDS011;33768;48.578;11.574;2023-10-31T16:44:06;1.30;;;0.93;;
48002;SDS011;33768;48.578;11.574;2023-10-31T16:47:10;3.37;;;1.60;;
48002;SDS011;33768;48.578;11.574;2023-10-31T16:50:15;1.93;;;1.10;;
48002;SDS011;33768;48.578;11.574;2023-10-31T16:53:19;2.03;;;1.30;;
48002;SDS011;33768;48.578;11.574;2023-10-31T16:56:25;1.70;;;1.40;;
48002;SDS011;33768;48.578;11.574;2023-10-31T16:59:30;2.60;;;1.00;;
48002;SDS011;33768;48.578;11.574;2023-10-31T17:02:34;1.70;;;1.10;;
48002;SDS011;33768;48.578;11.574;2023-10-31T17:05:39;1.87;;;1.00;;
48002;SDS011;33768;48.578;11.574;2023-10-31T17:08:43;2.53;;;1.27;;
48002;SDS011;33768;48.578;11.574;2023-10-31T17:11:47;2.37;;;1.10;;
48002;SDS011;33768;48.578;11.574;2023-10-31T17:14:51;1.43;;;1.10;;
48002;SDS011;33768;48.578;11.574;2023-10-31T17:17:56;3.23;;;1.80;;
48002;SDS011;33768;48.578;11.574;2023-10-31T17:21:01;4.13;;;2.80;;
48002;SDS011;33768;48.578;11.574;2023-10-31T17:24:05;2.73;;;1.50;;
48002;SDS011;33768;48.578;11.574;2023-10-31T17:27:10;6.33;;;1.60;;
48002;SDS011;33768;48.578;11.574;2023-10-31T17:30:15;1.77;;;1.23;;
48002;SDS011;33768;48.578;11.574;2023-10-31T17:33:19;3.03;;;1.60;;
48002;SDS011;33768;48.578;11.574;2023-10-31T17:36:23;3.17;;;2.07;;
48002;SDS011;33768;48.578;11.574;2023-10-31T17:39:27;2.67;;;1.93;;
48002;SDS011;33768;48.578;11.574;2023-10-31T17:42:31;3.90;;;2.57;;
48002;SDS011;33768;48.578;11.574;2023-10-31T17:45:37;2.97;;;1.93;;
48002;SDS011;33768;48.578;11.574;2023-10-31T17:48:41;2.50;;;1.60;;
48002;SDS011;33768;48.578;11.574;2023-10-31T17:51:45;2.47;;;1.37;;
48002;SDS011;33768;48.578;11.574;2023-10-31T17:54:49;2.33;;;1.50;;
48002;SDS011;33768;48.578;11.574;2023-10-31T17:57:54;3.53;;;1.50;;
48002;SDS011;33768;48.578;11.574;2023-10-31T18:00:58;5.10;;;1.50;;
48002;SDS011;33768;48.578;11.574;2023-10-31T18:04:02;2.77;;;1.70;;
48002;SDS011;33768;48.578;11.574;2023-10-31T18:07:06;3.60;;;1.80;;
48002;SDS011;33768;48.578;11.574;2023-10-31T18:10:10;3.00;;;1.97;;
48002;SDS011;33768;48.578;11.574;2023-10-31T18:13:14;3.20;;;2.03;;
48002;SDS011;33768;48.578;11.574;2023-10-31T18:16:19;2.20;;;1.97;;
48002;SDS011;33768;48.578;11.574;2023-10-31T18:19:23;3.73;;;2.27;;
48002;SDS011;33768;48.578;11.574;2023-10-31T18:22:27;3.33;;;2.33;;